sensor_id;sensor_type;location;lat;lon;timestamp;temperature;humidity
10692;DHT22;5396;50.950;6.988;2024-03-25T00:01:07;6.40;99.90
10692;DHT22;5396;50.950;6.988;2024-03-25T00:03:32;6.40;99.90
10692;DHT22;5396;50.950;6.988;2024-03-25T00:05:58;6.40;99.90
10692;DHT22;5396;50.950;6.988;2024-03-25T00:08:23;6.30;99.90
10692;DHT22;5396;50.950;6.988;2024-03-25T00:10:49;6.30;99.90
10692;DHT22;5396;50.950;6.988;2024-03-25T00:13:14;6.30;99.90
10692;DHT22;5396;50.950;6.988;2024-03-25T00:15:40;6.20;99.90
10692;DHT22;5396;50.950;6.988;2024-03-25T00:18:09;6.20;99.90
10692;DHT22;5396;50.950;6.988;2024-03-25T00:20:36;6.10;99.90
10692;DHT22;5396;50.950;6.988;2024-03-25T00:23:02;6.10;99.90
10692;DHT22;5396;50.950;6.988;2024-03-25T00:25:27;6.10;99.90
10692;DHT22;5396;50.950;6.988;2024-03-25T00:27:53;6.00;99.90
10692;DHT22;5396;50.950;6.988;2024-03-25T00:30:19;6.00;99.90
10692;DHT22;5396;50.950;6.988;2024-03-25T00:32:45;5.90;99.90
10692;DHT22;5396;50.950;6.988;2024-03-25T00:35:10;5.90;99.90
10692;DHT22;5396;50.950;6.988;2024-03-25T00:37:36;5.90;99.90
10692;DHT22;5396;50.950;6.988;2024-03-25T00:40:01;5.90;99.90
10692;DHT22;5396;50.950;6.988;2024-03-25T00:42:27;5.90;99.90
10692;DHT22;5396;50.950;6.988;2024-03-25T00:44:52;5.90;99.90
10692;DHT22;5396;50.950;6.988;2024-03-25T00:47:18;5.90;99.90
10692;DHT22;5396;50.950;6.988;2024-03-25T00:49:44;6.00;99.90
10692;DHT22;5396;50.950;6.988;2024-03-25T00:52:09;6.00;99.90
10692;DHT22;5396;50.950;6.988;2024-03-25T00:54:35;6.00;99.90
10692;DHT22;5396;50.950;6.988;2024-03-25T00:57:00;6.00;99.90
10692;DHT22;5396;50.950;6.988;2024-03-25T00:59:26;6.00;99.90
10692;DHT22;5396;50.950;6.988;2024-03-25T01:01:51;6.00;99.90
10692;DHT22;5396;50.950;6.988;2024-03-25T01:04:16;6.00;99.90
10692;DHT22;5396;50.950;6.988;2024-03-25T01:06:42;6.00;99.90
10692;DHT22;5396;50.950;6.988;2024-03-25T01:09:07;6.10;99.90
10692;DHT22;5396;50.950;6.988;2024-03-25T01:11:33;6.10;99.90
10692;DHT22;5396;50.950;6.988;2024-03-25T01:13:59;6.00;99.90
10692;DHT22;5396;50.950;6.988;2024-03-25T01:16:24;6.00;99.90
10692;DHT22;5396;50.950;6.988;2024-03-25T01:18:50;6.00;99.90
10692;DHT22;5396;50.950;6.988;2024-03-25T01:21:15;6.00;99.90
10692;DHT22;5396;50.950;6.988;2024-03-25T01:23:41;6.00;99.90
10692;DHT22;5396;50.950;6.988;2024-03-25T01:26:06;6.10;99.90
10692;DHT22;5396;50.950;6.988;2024-03-25T01:28:32;5.90;99.90
10692;DHT22;5396;50.950;6.988;2024-03-25T01:30:57;5.90;99.90
10692;DHT22;5396;50.950;6.988;2024-03-25T01:33:23;5.80;99.90
10692;DHT22;5396;50.950;6.988;2024-03-25T01:35:49;5.80;99.90
10692;DHT22;5396;50.950;6.988;2024-03-25T01:38:14;5.80;99.90
10692;DHT22;5396;50.950;6.988;2024-03-25T01:40:40;5.80;99.90
10692;DHT22;5396;50.950;6.988;2024-03-25T01:43:05;5.80;99.90
10692;DHT22;5396;50.950;6.988;2024-03-25T01:45:34;5.80;99.90
10692;DHT22;5396;50.950;6.988;2024-03-25T01:48:04;5.80;99.90
10692;DHT22;5396;50.950;6.988;2024-03-25T01:50:30;5.90;99.90
10692;DHT22;5396;50.950;6.988;2024-03-25T01:52:58;5.90;99.90
10692;DHT22;5396;50.950;6.988;2024-03-25T01:55:24;5.80;99.90
10692;DHT22;5396;50.950;6.988;2024-03-25T01:57:51;5.80;99.90
10692;DHT22;5396;50.950;6.988;2024-03-25T02:00:16;5.70;99.90
10692;DHT22;5396;50.950;6.988;2024-03-25T02:02:43;5.70;99.90
10692;DHT22;5396;50.950;6.988;2024-03-25T02:05:13;5.70;99.90
10692;DHT22;5396;50.950;6.988;2024-03-25T02:07:38;5.80;99.90
10692;DHT22;5396;50.950;6.988;2024-03-25T02:10:06;5.80;99.90
10692;DHT22;5396;50.950;6.988;2024-03-25T02:12:32;5.80;99.90
10692;DHT22;5396;50.950;6.988;2024-03-25T02:14:58;5.80;99.90
10692;DHT22;5396;50.950;6.988;2024-03-25T02:17:23;5.80;99.90
10692;DHT22;5396;50.950;6.988;2024-03-25T02:19:49;5.80;99.90
10692;DHT22;5396;50.950;6.988;2024-03-25T02:22:15;5.80;99.90
10692;DHT22;5396;50.950;6.988;2024-03-25T02:24:40;5.80;99.90
10692;DHT22;5396;50.950;6.988;2024-03-25T02:27:06;5.80;99.90
10692;DHT22;5396;50.950;6.988;2024-03-25T02:29:35;5.70;99.90
10692;DHT22;5396;50.950;6.988;2024-03-25T02:32:01;5.80;99.90
10692;DHT22;5396;50.950;6.988;2024-03-25T02:34:27;5.70;99.90
10692;DHT22;5396;50.950;6.988;2024-03-25T02:36:52;5.70;99.90
10692;DHT22;5396;50.950;6.988;2024-03-25T02:39:19;5.70;99.90
10692;DHT22;5396;50.950;6.988;2024-03-25T02:41:44;5.70;99.90
10692;DHT22;5396;50.950;6.988;2024-03-25T02:44:10;5.70;99.90
10692;DHT22;5396;50.950;6.988;2024-03-25T02:46:36;5.60;99.90
10692;DHT22;5396;50.950;6.988;2024-03-25T02:49:01;5.60;99.90
10692;DHT22;5396;50.950;6.988;2024-03-25T02:51:26;5.60;99.90
10692;DHT22;5396;50.950;6.988;2024-03-25T02:53:52;5.60;99.90
10692;DHT22;5396;50.950;6.988;2024-03-25T02:56:17;5.60;99.90
10692;DHT22;5396;50.950;6.988;2024-03-25T02:58:43;5.60;99.90
10692;DHT22;5396;50.950;6.988;2024-03-25T03:01:08;5.60;99.90
10692;DHT22;5396;50.950;6.988;2024-03-25T03:03:34;5.60;99.90
10692;DHT22;5396;50.950;6.988;2024-03-25T03:05:59;5.60;99.90
10692;DHT22;5396;50.950;6.988;2024-03-25T03:08:25;5.60;99.90
10692;DHT22;5396;50.950;6.988;2024-03-25T03:10:50;5.60;99.90
10692;DHT22;5396;50.950;6.988;2024-03-25T03:13:16;5.70;99.90
10692;DHT22;5396;50.950;6.988;2024-03-25T03:15:44;5.70;99.90
10692;DHT22;5396;50.950;6.988;2024-03-25T03:18:10;5.70;99.90
10692;DHT22;5396;50.950;6.988;2024-03-25T03:20:35;5.70;99.90
10692;DHT22;5396;50.950;6.988;2024-03-25T03:23:01;5.70;99.90
10692;DHT22;5396;50.950;6.988;2024-03-25T03:25:26;5.60;99.90
10692;DHT22;5396;50.950;6.988;2024-03-25T03:27:52;5.60;99.90
10692;DHT22;5396;50.950;6.988;2024-03-25T03:30:17;5.50;99.90
10692;DHT22;5396;50.950;6.988;2024-03-25T03:32:43;5.50;99.90
10692;DHT22;5396;50.950;6.988;2024-03-25T03:35:08;5.50;99.90
10692;DHT22;5396;50.950;6.988;2024-03-25T03:37:34;5.50;99.90
10692;DHT22;5396;50.950;6.988;2024-03-25T03:39:59;5.50;99.90
10692;DHT22;5396;50.950;6.988;2024-03-25T03:42:24;5.50;99.90
10692;DHT22;5396;50.950;6.988;2024-03-25T03:44:50;5.50;99.90
10692;DHT22;5396;50.950;6.988;2024-03-25T03:47:15;5.50;99.90
10692;DHT22;5396;50.950;6.988;2024-03-25T03:49:41;5.50;99.90
10692;DHT22;5396;50.950;6.988;2024-03-25T03:52:06;5.50;99.90
10692;DHT22;5396;50.950;6.988;2024-03-25T03:54:32;5.50;99.90
10692;DHT22;5396;50.950;6.988;2024-03-25T03:56:57;5.50;99.90
10692;DHT22;5396;50.950;6.988;2024-03-25T03:59:23;5.40;99.90
10692;DHT22;5396;50.950;6.988;2024-03-25T04:01:49;5.40;99.90
10692;DHT22;5396;50.950;6.988;2024-03-25T04:04:14;5.40;99.90
10692;DHT22;5396;50.950;6.988;2024-03-25T04:06:40;5.40;99.90
10692;DHT22;5396;50.950;6.988;2024-03-25T04:09:06;5.30;99.90
10692;DHT22;5396;50.950;6.988;2024-03-25T04:11:34;5.30;99.90
10692;DHT22;5396;50.950;6.988;2024-03-25T04:14:00;5.30;99.90
10692;DHT22;5396;50.950;6.988;2024-03-25T04:16:26;5.20;99.90
10692;DHT22;5396;50.950;6.988;2024-03-25T04:18:51;5.20;99.90
10692;DHT22;5396;50.950;6.988;2024-03-25T04:21:17;5.20;99.90
10692;DHT22;5396;50.950;6.988;2024-03-25T04:23:42;5.20;99.90
10692;DHT22;5396;50.950;6.988;2024-03-25T04:26:10;5.10;99.90
10692;DHT22;5396;50.950;6.988;2024-03-25T04:28:35;5.10;99.90
10692;DHT22;5396;50.950;6.988;2024-03-25T04:31:01;5.00;99.90
10692;DHT22;5396;50.950;6.988;2024-03-25T04:33:26;5.00;99.90
10692;DHT22;5396;50.950;6.988;2024-03-25T04:35:51;4.90;99.90
10692;DHT22;5396;50.950;6.988;2024-03-25T04:38:17;4.90;99.90
10692;DHT22;5396;50.950;6.988;2024-03-25T04:40:43;4.80;99.90
10692;DHT22;5396;50.950;6.988;2024-03-25T04:43:09;4.80;99.90
10692;DHT22;5396;50.950;6.988;2024-03-25T04:45:34;4.80;99.90
10692;DHT22;5396;50.950;6.988;2024-03-25T04:48:00;4.70;99.90
10692;DHT22;5396;50.950;6.988;2024-03-25T04:50:26;4.70;99.90
10692;DHT22;5396;50.950;6.988;2024-03-25T04:52:52;4.70;99.90
10692;DHT22;5396;50.950;6.988;2024-03-25T04:55:17;4.70;99.90
10692;DHT22;5396;50.950;6.988;2024-03-25T04:57:43;4.70;99.90
10692;DHT22;5396;50.950;6.988;2024-03-25T05:00:08;4.60;99.90
10692;DHT22;5396;50.950;6.988;2024-03-25T05:02:37;4.50;99.90
10692;DHT22;5396;50.950;6.988;2024-03-25T05:05:03;4.60;99.90
10692;DHT22;5396;50.950;6.988;2024-03-25T05:07:28;4.60;99.90
10692;DHT22;5396;50.950;6.988;2024-03-25T05:09:54;4.60;99.90
10692;DHT22;5396;50.950;6.988;2024-03-25T05:12:20;4.60;99.90
10692;DHT22;5396;50.950;6.988;2024-03-25T05:14:45;4.50;99.90
10692;DHT22;5396;50.950;6.988;2024-03-25T05:17:11;4.50;99.90
10692;DHT22;5396;50.950;6.988;2024-03-25T05:19:36;4.50;99.90
10692;DHT22;5396;50.950;6.988;2024-03-25T05:22:02;4.50;99.90
10692;DHT22;5396;50.950;6.988;2024-03-25T05:24:27;4.50;99.90
10692;DHT22;5396;50.950;6.988;2024-03-25T05:26:53;4.60;99.90
10692;DHT22;5396;50.950;6.988;2024-03-25T05:29:19;4.60;99.90
10692;DHT22;5396;50.950;6.988;2024-03-25T05:32:05;4.60;99.90
10692;DHT22;5396;50.950;6.988;2024-03-25T05:34:30;4.60;99.90
10692;DHT22;5396;50.950;6.988;2024-03-25T05:36:56;4.60;99.90
10692;DHT22;5396;50.950;6.988;2024-03-25T05:39:22;4.60;99.90
10692;DHT22;5396;50.950;6.988;2024-03-25T05:41:48;4.70;99.90
10692;DHT22;5396;50.950;6.988;2024-03-25T05:44:13;4.70;99.90
10692;DHT22;5396;50.950;6.988;2024-03-25T05:46:39;4.70;99.90
10692;DHT22;5396;50.950;6.988;2024-03-25T05:49:05;4.70;99.90
10692;DHT22;5396;50.950;6.988;2024-03-25T05:51:30;4.70;99.90
10692;DHT22;5396;50.950;6.988;2024-03-25T05:53:56;4.70;99.90
10692;DHT22;5396;50.950;6.988;2024-03-25T05:56:22;4.60;99.90
10692;DHT22;5396;50.950;6.988;2024-03-25T05:58:47;4.70;99.90
10692;DHT22;5396;50.950;6.988;2024-03-25T06:01:13;4.70;99.90
10692;DHT22;5396;50.950;6.988;2024-03-25T06:03:38;4.70;99.90
10692;DHT22;5396;50.950;6.988;2024-03-25T06:06:04;4.70;99.90
10692;DHT22;5396;50.950;6.988;2024-03-25T06:08:29;4.80;99.90
10692;DHT22;5396;50.950;6.988;2024-03-25T06:11:00;4.80;99.90
10692;DHT22;5396;50.950;6.988;2024-03-25T06:13:26;4.80;99.90
10692;DHT22;5396;50.950;6.988;2024-03-25T06:15:51;4.80;99.90
10692;DHT22;5396;50.950;6.988;2024-03-25T06:18:17;4.80;99.90
10692;DHT22;5396;50.950;6.988;2024-03-25T06:20:42;4.90;99.90
10692;DHT22;5396;50.950;6.988;2024-03-25T06:23:08;4.90;99.90
10692;DHT22;5396;50.950;6.988;2024-03-25T06:25:33;4.80;99.90
10692;DHT22;5396;50.950;6.988;2024-03-25T06:28:00;4.80;99.90
10692;DHT22;5396;50.950;6.988;2024-03-25T06:30:26;4.90;99.90
10692;DHT22;5396;50.950;6.988;2024-03-25T06:33:10;4.90;99.90
10692;DHT22;5396;50.950;6.988;2024-03-25T06:35:54;5.00;99.90
10692;DHT22;5396;50.950;6.988;2024-03-25T06:38:20;5.00;99.90
10692;DHT22;5396;50.950;6.988;2024-03-25T06:40:46;5.10;99.90
10692;DHT22;5396;50.950;6.988;2024-03-25T06:43:11;5.20;99.90
10692;DHT22;5396;50.950;6.988;2024-03-25T06:45:36;5.20;99.90
10692;DHT22;5396;50.950;6.988;2024-03-25T06:48:02;5.30;99.90
10692;DHT22;5396;50.950;6.988;2024-03-25T06:50:28;5.30;99.90
10692;DHT22;5396;50.950;6.988;2024-03-25T06:52:53;5.40;99.90
10692;DHT22;5396;50.950;6.988;2024-03-25T06:55:19;5.40;99.90
10692;DHT22;5396;50.950;6.988;2024-03-25T06:57:48;5.50;99.90
10692;DHT22;5396;50.950;6.988;2024-03-25T07:00:13;5.50;99.90
10692;DHT22;5396;50.950;6.988;2024-03-25T07:02:39;5.50;99.90
10692;DHT22;5396;50.950;6.988;2024-03-25T07:05:05;5.50;99.90
10692;DHT22;5396;50.950;6.988;2024-03-25T07:07:31;5.50;99.90
10692;DHT22;5396;50.950;6.988;2024-03-25T07:09:56;5.50;99.90
10692;DHT22;5396;50.950;6.988;2024-03-25T07:12:22;5.60;99.90
10692;DHT22;5396;50.950;6.988;2024-03-25T07:14:48;5.60;99.90
10692;DHT22;5396;50.950;6.988;2024-03-25T07:17:13;5.60;99.90
10692;DHT22;5396;50.950;6.988;2024-03-25T07:19:39;5.70;99.90
10692;DHT22;5396;50.950;6.988;2024-03-25T07:22:04;5.60;99.90
10692;DHT22;5396;50.950;6.988;2024-03-25T07:24:30;5.70;99.90
10692;DHT22;5396;50.950;6.988;2024-03-25T07:26:55;5.70;99.90
10692;DHT22;5396;50.950;6.988;2024-03-25T07:29:20;5.80;99.90
10692;DHT22;5396;50.950;6.988;2024-03-25T07:31:46;5.70;99.90
10692;DHT22;5396;50.950;6.988;2024-03-25T07:34:11;5.80;99.90
10692;DHT22;5396;50.950;6.988;2024-03-25T07:36:37;5.80;99.90
10692;DHT22;5396;50.950;6.988;2024-03-25T07:39:04;5.90;99.90
10692;DHT22;5396;50.950;6.988;2024-03-25T07:41:31;6.00;99.90
10692;DHT22;5396;50.950;6.988;2024-03-25T07:43:57;6.00;99.90
10692;DHT22;5396;50.950;6.988;2024-03-25T07:46:22;6.10;99.90
10692;DHT22;5396;50.950;6.988;2024-03-25T07:48:47;6.20;99.90
10692;DHT22;5396;50.950;6.988;2024-03-25T07:51:13;6.20;99.90
10692;DHT22;5396;50.950;6.988;2024-03-25T07:53:38;6.30;99.90
10692;DHT22;5396;50.950;6.988;2024-03-25T07:56:04;6.50;99.90
10692;DHT22;5396;50.950;6.988;2024-03-25T07:58:30;6.50;99.90
10692;DHT22;5396;50.950;6.988;2024-03-25T08:00:55;6.60;99.90
10692;DHT22;5396;50.950;6.988;2024-03-25T08:03:21;6.70;99.90
10692;DHT22;5396;50.950;6.988;2024-03-25T08:05:47;6.80;99.90
10692;DHT22;5396;50.950;6.988;2024-03-25T08:08:13;6.80;99.90
10692;DHT22;5396;50.950;6.988;2024-03-25T08:10:38;6.90;99.90
10692;DHT22;5396;50.950;6.988;2024-03-25T08:13:04;7.00;99.90
10692;DHT22;5396;50.950;6.988;2024-03-25T08:15:29;7.10;99.90
10692;DHT22;5396;50.950;6.988;2024-03-25T08:17:55;7.30;99.90
10692;DHT22;5396;50.950;6.988;2024-03-25T08:20:20;7.40;99.90
10692;DHT22;5396;50.950;6.988;2024-03-25T08:22:46;7.40;99.90
10692;DHT22;5396;50.950;6.988;2024-03-25T08:25:13;7.50;99.90
10692;DHT22;5396;50.950;6.988;2024-03-25T08:27:39;7.70;99.90
10692;DHT22;5396;50.950;6.988;2024-03-25T08:30:04;7.70;99.90
10692;DHT22;5396;50.950;6.988;2024-03-25T08:32:31;7.80;99.90
10692;DHT22;5396;50.950;6.988;2024-03-25T08:34:58;7.90;99.90
10692;DHT22;5396;50.950;6.988;2024-03-25T08:37:23;7.90;99.90
10692;DHT22;5396;50.950;6.988;2024-03-25T08:39:49;8.00;99.90
10692;DHT22;5396;50.950;6.988;2024-03-25T08:42:14;8.10;99.90
10692;DHT22;5396;50.950;6.988;2024-03-25T08:44:40;8.20;99.90
10692;DHT22;5396;50.950;6.988;2024-03-25T08:47:05;8.20;99.90
10692;DHT22;5396;50.950;6.988;2024-03-25T08:49:31;8.20;99.90
10692;DHT22;5396;50.950;6.988;2024-03-25T08:51:57;8.30;99.90
10692;DHT22;5396;50.950;6.988;2024-03-25T08:54:22;8.40;99.90
10692;DHT22;5396;50.950;6.988;2024-03-25T08:56:48;8.60;99.90
10692;DHT22;5396;50.950;6.988;2024-03-25T08:59:13;8.60;99.90
10692;DHT22;5396;50.950;6.988;2024-03-25T09:01:39;8.60;99.90
10692;DHT22;5396;50.950;6.988;2024-03-25T09:04:04;8.60;99.90
10692;DHT22;5396;50.950;6.988;2024-03-25T09:06:29;8.60;99.90
10692;DHT22;5396;50.950;6.988;2024-03-25T09:08:55;8.40;99.90
10692;DHT22;5396;50.950;6.988;2024-03-25T09:11:39;8.40;99.90
10692;DHT22;5396;50.950;6.988;2024-03-25T09:14:04;8.50;99.90
10692;DHT22;5396;50.950;6.988;2024-03-25T09:16:31;8.50;99.90
10692;DHT22;5396;50.950;6.988;2024-03-25T09:18:57;8.50;99.90
10692;DHT22;5396;50.950;6.988;2024-03-25T09:21:22;8.50;99.90
10692;DHT22;5396;50.950;6.988;2024-03-25T09:23:49;8.50;99.90
10692;DHT22;5396;50.950;6.988;2024-03-25T09:26:15;8.50;99.90
10692;DHT22;5396;50.950;6.988;2024-03-25T09:28:40;8.70;99.90
10692;DHT22;5396;50.950;6.988;2024-03-25T09:31:06;8.80;99.90
10692;DHT22;5396;50.950;6.988;2024-03-25T09:33:31;8.80;99.90
10692;DHT22;5396;50.950;6.988;2024-03-25T09:35:57;8.90;99.90
10692;DHT22;5396;50.950;6.988;2024-03-25T09:38:23;9.00;99.90
10692;DHT22;5396;50.950;6.988;2024-03-25T09:40:50;9.10;99.90
10692;DHT22;5396;50.950;6.988;2024-03-25T09:43:22;9.10;99.90
10692;DHT22;5396;50.950;6.988;2024-03-25T09:45:48;9.20;99.90
10692;DHT22;5396;50.950;6.988;2024-03-25T09:48:18;9.50;99.90
10692;DHT22;5396;50.950;6.988;2024-03-25T09:50:44;9.60;99.90
10692;DHT22;5396;50.950;6.988;2024-03-25T09:53:10;9.70;99.90
10692;DHT22;5396;50.950;6.988;2024-03-25T09:55:35;9.70;99.90
10692;DHT22;5396;50.950;6.988;2024-03-25T09:58:02;9.70;99.90
10692;DHT22;5396;50.950;6.988;2024-03-25T10:00:27;9.60;99.90
10692;DHT22;5396;50.950;6.988;2024-03-25T10:02:53;9.50;99.90
10692;DHT22;5396;50.950;6.988;2024-03-25T10:05:19;9.50;99.90
10692;DHT22;5396;50.950;6.988;2024-03-25T10:07:45;9.40;99.90
10692;DHT22;5396;50.950;6.988;2024-03-25T10:10:11;9.30;99.90
10692;DHT22;5396;50.950;6.988;2024-03-25T10:12:36;9.30;99.90
10692;DHT22;5396;50.950;6.988;2024-03-25T10:15:02;9.40;99.90
10692;DHT22;5396;50.950;6.988;2024-03-25T10:17:30;9.60;99.90
10692;DHT22;5396;50.950;6.988;2024-03-25T10:19:55;9.60;99.90
10692;DHT22;5396;50.950;6.988;2024-03-25T10:22:21;9.60;99.90
10692;DHT22;5396;50.950;6.988;2024-03-25T10:24:47;9.80;99.90
10692;DHT22;5396;50.950;6.988;2024-03-25T10:27:19;10.00;99.90
10692;DHT22;5396;50.950;6.988;2024-03-25T10:29:45;10.10;99.90
10692;DHT22;5396;50.950;6.988;2024-03-25T10:32:12;10.20;99.90
10692;DHT22;5396;50.950;6.988;2024-03-25T10:34:38;10.10;99.90
10692;DHT22;5396;50.950;6.988;2024-03-25T10:37:04;10.10;99.90
10692;DHT22;5396;50.950;6.988;2024-03-25T10:39:30;10.00;99.90
10692;DHT22;5396;50.950;6.988;2024-03-25T10:41:57;9.80;99.90
10692;DHT22;5396;50.950;6.988;2024-03-25T10:44:23;9.80;99.90
10692;DHT22;5396;50.950;6.988;2024-03-25T10:46:54;9.80;99.90
10692;DHT22;5396;50.950;6.988;2024-03-25T10:49:27;10.00;99.90
10692;DHT22;5396;50.950;6.988;2024-03-25T10:51:57;10.10;99.90
10692;DHT22;5396;50.950;6.988;2024-03-25T10:54:23;10.30;99.90
10692;DHT22;5396;50.950;6.988;2024-03-25T10:56:49;10.20;99.90
10692;DHT22;5396;50.950;6.988;2024-03-25T10:59:16;10.20;99.90
10692;DHT22;5396;50.950;6.988;2024-03-25T11:01:43;10.30;99.90
10692;DHT22;5396;50.950;6.988;2024-03-25T11:04:10;10.40;99.90
10692;DHT22;5396;50.950;6.988;2024-03-25T11:06:36;10.50;99.90
10692;DHT22;5396;50.950;6.988;2024-03-25T11:09:02;10.50;99.90
10692;DHT22;5396;50.950;6.988;2024-03-25T11:11:31;10.60;99.90
10692;DHT22;5396;50.950;6.988;2024-03-25T11:13:57;10.70;99.90
10692;DHT22;5396;50.950;6.988;2024-03-25T11:16:26;10.80;99.90
10692;DHT22;5396;50.950;6.988;2024-03-25T11:18:52;10.90;99.90
10692;DHT22;5396;50.950;6.988;2024-03-25T11:21:24;10.80;99.90
10692;DHT22;5396;50.950;6.988;2024-03-25T11:23:49;10.70;99.90
10692;DHT22;5396;50.950;6.988;2024-03-25T11:26:18;10.70;99.90
10692;DHT22;5396;50.950;6.988;2024-03-25T11:28:44;10.80;99.90
10692;DHT22;5396;50.950;6.988;2024-03-25T11:31:10;10.80;99.90
10692;DHT22;5396;50.950;6.988;2024-03-25T11:33:39;11.00;99.90
10692;DHT22;5396;50.950;6.988;2024-03-25T11:36:05;11.10;99.90
10692;DHT22;5396;50.950;6.988;2024-03-25T11:38:30;11.20;99.90
10692;DHT22;5396;50.950;6.988;2024-03-25T11:40:56;11.30;99.90
10692;DHT22;5396;50.950;6.988;2024-03-25T11:43:22;11.50;99.90
10692;DHT22;5396;50.950;6.988;2024-03-25T11:45:48;11.60;99.90
10692;DHT22;5396;50.950;6.988;2024-03-25T11:48:14;11.70;99.90
10692;DHT22;5396;50.950;6.988;2024-03-25T11:50:40;11.80;99.90
10692;DHT22;5396;50.950;6.988;2024-03-25T11:53:05;11.90;99.90
10692;DHT22;5396;50.950;6.988;2024-03-25T11:55:31;11.80;99.90
10692;DHT22;5396;50.950;6.988;2024-03-25T11:57:57;11.80;99.90
10692;DHT22;5396;50.950;6.988;2024-03-25T12:00:23;11.50;99.90
10692;DHT22;5396;50.950;6.988;2024-03-25T12:02:49;11.50;99.90
10692;DHT22;5396;50.950;6.988;2024-03-25T12:05:14;11.50;99.90
10692;DHT22;5396;50.950;6.988;2024-03-25T12:07:40;11.70;99.90
10692;DHT22;5396;50.950;6.988;2024-03-25T12:10:05;11.80;99.90
10692;DHT22;5396;50.950;6.988;2024-03-25T12:12:50;11.90;99.90
10692;DHT22;5396;50.950;6.988;2024-03-25T12:15:19;11.90;99.90
10692;DHT22;5396;50.950;6.988;2024-03-25T12:17:45;11.70;99.90
10692;DHT22;5396;50.950;6.988;2024-03-25T12:20:11;11.70;99.90
10692;DHT22;5396;50.950;6.988;2024-03-25T12:22:37;11.80;99.90
10692;DHT22;5396;50.950;6.988;2024-03-25T12:25:03;11.80;99.90
10692;DHT22;5396;50.950;6.988;2024-03-25T12:27:31;11.70;99.90
10692;DHT22;5396;50.950;6.988;2024-03-25T12:32:36;11.80;99.90
10692;DHT22;5396;50.950;6.988;2024-03-25T12:35:01;12.10;99.90
10692;DHT22;5396;50.950;6.988;2024-03-25T12:37:28;12.20;99.90
10692;DHT22;5396;50.950;6.988;2024-03-25T12:39:54;12.30;99.90
10692;DHT22;5396;50.950;6.988;2024-03-25T12:42:23;12.40;99.90
10692;DHT22;5396;50.950;6.988;2024-03-25T12:44:49;12.30;99.90
10692;DHT22;5396;50.950;6.988;2024-03-25T12:47:14;12.40;99.90
10692;DHT22;5396;50.950;6.988;2024-03-25T12:49:40;12.30;99.90
10692;DHT22;5396;50.950;6.988;2024-03-25T12:52:05;12.40;99.90
10692;DHT22;5396;50.950;6.988;2024-03-25T12:54:32;12.50;99.90
10692;DHT22;5396;50.950;6.988;2024-03-25T12:56:58;12.70;99.90
10692;DHT22;5396;50.950;6.988;2024-03-25T12:59:23;12.60;99.90
10692;DHT22;5396;50.950;6.988;2024-03-25T13:01:49;12.60;99.90
10692;DHT22;5396;50.950;6.988;2024-03-25T13:04:16;12.70;99.90
10692;DHT22;5396;50.950;6.988;2024-03-25T13:06:42;12.70;99.90
10692;DHT22;5396;50.950;6.988;2024-03-25T13:09:07;12.80;99.90
10692;DHT22;5396;50.950;6.988;2024-03-25T13:11:33;12.90;99.90
10692;DHT22;5396;50.950;6.988;2024-03-25T13:13:58;13.40;99.90
10692;DHT22;5396;50.950;6.988;2024-03-25T13:16:25;14.70;99.90
10692;DHT22;5396;50.950;6.988;2024-03-25T13:18:51;15.90;99.90
10692;DHT22;5396;50.950;6.988;2024-03-25T13:21:16;17.20;99.90
10692;DHT22;5396;50.950;6.988;2024-03-25T13:23:42;18.40;99.90
10692;DHT22;5396;50.950;6.988;2024-03-25T13:26:08;18.50;99.90
10692;DHT22;5396;50.950;6.988;2024-03-25T13:28:33;18.90;99.90
10692;DHT22;5396;50.950;6.988;2024-03-25T13:30:59;18.80;99.90
10692;DHT22;5396;50.950;6.988;2024-03-25T13:33:24;19.10;99.90
10692;DHT22;5396;50.950;6.988;2024-03-25T13:35:50;20.40;99.90
10692;DHT22;5396;50.950;6.988;2024-03-25T13:38:15;20.80;99.90
10692;DHT22;5396;50.950;6.988;2024-03-25T13:40:41;20.80;99.90
10692;DHT22;5396;50.950;6.988;2024-03-25T13:43:06;20.70;99.90
10692;DHT22;5396;50.950;6.988;2024-03-25T13:45:34;20.50;99.90
10692;DHT22;5396;50.950;6.988;2024-03-25T13:47:59;21.00;99.90
10692;DHT22;5396;50.950;6.988;2024-03-25T13:50:25;21.10;99.90
